sensor_id;sensor_type;location;lat;lon;timestamp;P1;durP1;ratioP1;P2;durP2;ratioP2
74777;SDS011;63298;53.164;8.610;2023-03-23T00:02:14;8.85;;;7.50;;
74777;SDS011;63298;53.164;8.610;2023-03-23T00:04:39;7.63;;;6.78;;
74777;SDS011;63298;53.164;8.610;2023-03-23T00:07:05;8.75;;;6.60;;
74777;SDS011;63298;53.164;8.610;2023-03-23T00:09:30;11.35;;;6.75;;
74777;SDS011;63298;53.164;8.610;2023-03-23T00:11:55;7.80;;;6.35;;
74777;SDS011;63298;53.164;8.610;2023-03-23T00:14:21;6.88;;;6.18;;
74777;SDS011;63298;53.164;8.610;2023-03-23T00:16:46;7.75;;;6.95;;
74777;SDS011;63298;53.164;8.610;2023-03-23T00:19:12;7.55;;;6.72;;
74777;SDS011;63298;53.164;8.610;2023-03-23T00:21:39;8.40;;;6.43;;
74777;SDS011;63298;53.164;8.610;2023-03-23T00:24:07;7.72;;;6.75;;
74777;SDS011;63298;53.164;8.610;2023-03-23T00:26:35;6.25;;;5.75;;
74777;SDS011;63298;53.164;8.610;2023-03-23T00:29:03;6.07;;;5.47;;
74777;SDS011;63298;53.164;8.610;2023-03-23T00:31:29;7.82;;;5.97;;
74777;SDS011;63298;53.164;8.610;2023-03-23T00:33:55;7.18;;;6.50;;
74777;SDS011;63298;53.164;8.610;2023-03-23T00:36:21;7.55;;;6.13;;
74777;SDS011;63298;53.164;8.610;2023-03-23T00:38:46;7.88;;;6.28;;
74777;SDS011;63298;53.164;8.610;2023-03-23T00:41:12;8.73;;;6.07;;
74777;SDS011;63298;53.164;8.610;2023-03-23T00:43:37;9.05;;;6.30;;
74777;SDS011;63298;53.164;8.610;2023-03-23T00:46:03;6.72;;;6.13;;
74777;SDS011;63298;53.164;8.610;2023-03-23T00:48:29;9.27;;;6.63;;
74777;SDS011;63298;53.164;8.610;2023-03-23T00:50:54;7.47;;;6.50;;
74777;SDS011;63298;53.164;8.610;2023-03-23T00:53:19;7.25;;;6.55;;
74777;SDS011;63298;53.164;8.610;2023-03-23T00:55:45;7.07;;;6.35;;
74777;SDS011;63298;53.164;8.610;2023-03-23T00:58:12;7.47;;;5.97;;
74777;SDS011;63298;53.164;8.610;2023-03-23T01:00:38;7.80;;;6.35;;
74777;SDS011;63298;53.164;8.610;2023-03-23T01:03:06;7.80;;;6.43;;
74777;SDS011;63298;53.164;8.610;2023-03-23T01:05:35;8.50;;;6.93;;
74777;SDS011;63298;53.164;8.610;2023-03-23T01:08:02;8.10;;;6.68;;
74777;SDS011;63298;53.164;8.610;2023-03-23T01:10:28;11.45;;;6.68;;
74777;SDS011;63298;53.164;8.610;2023-03-23T01:12:54;8.48;;;6.47;;
74777;SDS011;63298;53.164;8.610;2023-03-23T01:15:20;9.73;;;6.05;;
74777;SDS011;63298;53.164;8.610;2023-03-23T01:17:45;11.55;;;6.70;;
74777;SDS011;63298;53.164;8.610;2023-03-23T01:20:12;7.53;;;6.03;;
74777;SDS011;63298;53.164;8.610;2023-03-23T01:22:39;6.97;;;5.97;;
74777;SDS011;63298;53.164;8.610;2023-03-23T01:25:05;7.30;;;6.30;;
74777;SDS011;63298;53.164;8.610;2023-03-23T01:27:31;6.47;;;5.63;;
74777;SDS011;63298;53.164;8.610;2023-03-23T01:29:56;7.70;;;5.80;;
74777;SDS011;63298;53.164;8.610;2023-03-23T01:32:22;7.22;;;5.63;;
74777;SDS011;63298;53.164;8.610;2023-03-23T01:34:47;9.05;;;5.80;;
74777;SDS011;63298;53.164;8.610;2023-03-23T01:37:13;7.72;;;6.18;;
74777;SDS011;63298;53.164;8.610;2023-03-23T01:39:38;7.55;;;5.78;;
74777;SDS011;63298;53.164;8.610;2023-03-23T01:42:03;7.55;;;6.00;;
74777;SDS011;63298;53.164;8.610;2023-03-23T01:46:54;10.23;;;5.93;;
74777;SDS011;63298;53.164;8.610;2023-03-23T01:49:27;9.35;;;6.15;;
74777;SDS011;63298;53.164;8.610;2023-03-23T01:51:57;8.18;;;6.10;;
74777;SDS011;63298;53.164;8.610;2023-03-23T01:54:36;6.38;;;5.60;;
74777;SDS011;63298;53.164;8.610;2023-03-23T01:57:05;5.72;;;5.15;;
74777;SDS011;63298;53.164;8.610;2023-03-23T01:59:31;7.80;;;5.80;;
74777;SDS011;63298;53.164;8.610;2023-03-23T02:01:58;7.10;;;5.70;;
74777;SDS011;63298;53.164;8.610;2023-03-23T02:04:24;6.47;;;5.32;;
74777;SDS011;63298;53.164;8.610;2023-03-23T02:06:53;5.75;;;5.13;;
74777;SDS011;63298;53.164;8.610;2023-03-23T02:11:45;7.45;;;5.68;;
74777;SDS011;63298;53.164;8.610;2023-03-23T02:14:12;6.22;;;5.13;;
74777;SDS011;63298;53.164;8.610;2023-03-23T02:16:46;9.85;;;5.40;;
74777;SDS011;63298;53.164;8.610;2023-03-23T02:22:07;5.85;;;5.10;;
74777;SDS011;63298;53.164;8.610;2023-03-23T02:24:50;7.28;;;5.20;;
74777;SDS011;63298;53.164;8.610;2023-03-23T02:27:36;7.30;;;5.18;;
74777;SDS011;63298;53.164;8.610;2023-03-23T02:33:35;6.38;;;4.93;;
74777;SDS011;63298;53.164;8.610;2023-03-23T02:36:04;9.10;;;5.78;;
74777;SDS011;63298;53.164;8.610;2023-03-23T02:41:07;8.43;;;5.38;;
74777;SDS011;63298;53.164;8.610;2023-03-23T02:43:40;10.25;;;6.25;;
74777;SDS011;63298;53.164;8.610;2023-03-23T02:46:10;13.15;;;6.18;;
74777;SDS011;63298;53.164;8.610;2023-03-23T02:48:36;5.72;;;4.90;;
74777;SDS011;63298;53.164;8.610;2023-03-23T02:51:07;7.80;;;5.47;;
74777;SDS011;63298;53.164;8.610;2023-03-23T02:53:34;8.18;;;5.28;;
74777;SDS011;63298;53.164;8.610;2023-03-23T02:56:03;10.25;;;5.30;;
74777;SDS011;63298;53.164;8.610;2023-03-23T02:58:32;9.85;;;5.53;;
74777;SDS011;63298;53.164;8.610;2023-03-23T03:00:58;7.97;;;4.72;;
74777;SDS011;63298;53.164;8.610;2023-03-23T03:03:28;6.35;;;4.90;;
74777;SDS011;63298;53.164;8.610;2023-03-23T03:06:10;11.00;;;5.45;;
74777;SDS011;63298;53.164;8.610;2023-03-23T03:09:11;5.30;;;4.28;;
74777;SDS011;63298;53.164;8.610;2023-03-23T03:11:58;7.10;;;4.68;;
74777;SDS011;63298;53.164;8.610;2023-03-23T03:14:37;9.68;;;5.07;;
74777;SDS011;63298;53.164;8.610;2023-03-23T03:17:23;6.78;;;4.90;;
74777;SDS011;63298;53.164;8.610;2023-03-23T03:19:51;10.13;;;5.30;;
74777;SDS011;63298;53.164;8.610;2023-03-23T03:22:21;8.00;;;5.18;;
74777;SDS011;63298;53.164;8.610;2023-03-23T03:24:48;9.50;;;4.80;;
74777;SDS011;63298;53.164;8.610;2023-03-23T03:27:17;7.13;;;4.47;;
74777;SDS011;63298;53.164;8.610;2023-03-23T03:32:15;6.60;;;4.88;;
74777;SDS011;63298;53.164;8.610;2023-03-23T03:34:45;7.47;;;4.50;;
74777;SDS011;63298;53.164;8.610;2023-03-23T03:37:10;7.10;;;4.80;;
74777;SDS011;63298;53.164;8.610;2023-03-23T03:39:36;7.68;;;4.32;;
74777;SDS011;63298;53.164;8.610;2023-03-23T03:42:03;8.18;;;4.75;;
74777;SDS011;63298;53.164;8.610;2023-03-23T03:44:29;10.55;;;4.63;;
74777;SDS011;63298;53.164;8.610;2023-03-23T03:46:54;5.68;;;4.13;;
74777;SDS011;63298;53.164;8.610;2023-03-23T03:49:20;5.30;;;4.05;;
74777;SDS011;63298;53.164;8.610;2023-03-23T03:51:45;7.22;;;4.28;;
74777;SDS011;63298;53.164;8.610;2023-03-23T03:54:11;9.00;;;4.25;;
74777;SDS011;63298;53.164;8.610;2023-03-23T03:56:36;5.95;;;4.75;;
74777;SDS011;63298;53.164;8.610;2023-03-23T03:59:03;8.77;;;4.85;;
74777;SDS011;63298;53.164;8.610;2023-03-23T04:01:28;6.72;;;4.72;;
74777;SDS011;63298;53.164;8.610;2023-03-23T04:03:54;8.43;;;5.28;;
74777;SDS011;63298;53.164;8.610;2023-03-23T04:06:19;7.75;;;4.50;;
74777;SDS011;63298;53.164;8.610;2023-03-23T04:08:45;6.97;;;4.55;;
74777;SDS011;63298;53.164;8.610;2023-03-23T04:11:11;7.22;;;4.70;;
74777;SDS011;63298;53.164;8.610;2023-03-23T04:13:37;5.57;;;4.57;;
74777;SDS011;63298;53.164;8.610;2023-03-23T04:16:04;9.00;;;4.95;;
74777;SDS011;63298;53.164;8.610;2023-03-23T04:18:30;8.45;;;4.47;;
74777;SDS011;63298;53.164;8.610;2023-03-23T04:20:55;5.65;;;5.03;;
74777;SDS011;63298;53.164;8.610;2023-03-23T04:23:21;6.82;;;5.18;;
74777;SDS011;63298;53.164;8.610;2023-03-23T04:25:47;8.48;;;4.68;;
74777;SDS011;63298;53.164;8.610;2023-03-23T04:28:15;6.32;;;4.47;;
74777;SDS011;63298;53.164;8.610;2023-03-23T04:30:41;5.65;;;4.85;;
74777;SDS011;63298;53.164;8.610;2023-03-23T04:33:06;7.10;;;4.38;;
74777;SDS011;63298;53.164;8.610;2023-03-23T04:35:31;7.30;;;4.43;;
74777;SDS011;63298;53.164;8.610;2023-03-23T04:37:57;6.47;;;4.07;;
74777;SDS011;63298;53.164;8.610;2023-03-23T04:40:22;6.70;;;4.50;;
74777;SDS011;63298;53.164;8.610;2023-03-23T04:42:48;11.32;;;4.68;;
74777;SDS011;63298;53.164;8.610;2023-03-23T04:45:15;6.70;;;4.30;;
74777;SDS011;63298;53.164;8.610;2023-03-23T04:47:42;6.32;;;4.15;;
74777;SDS011;63298;53.164;8.610;2023-03-23T04:50:08;6.88;;;4.32;;
74777;SDS011;63298;53.164;8.610;2023-03-23T04:52:36;3.95;;;3.55;;
74777;SDS011;63298;53.164;8.610;2023-03-23T04:55:02;4.10;;;3.70;;
74777;SDS011;63298;53.164;8.610;2023-03-23T04:57:27;10.93;;;4.20;;
74777;SDS011;63298;53.164;8.610;2023-03-23T04:59:53;6.05;;;3.70;;
74777;SDS011;63298;53.164;8.610;2023-03-23T05:02:18;6.18;;;4.13;;
74777;SDS011;63298;53.164;8.610;2023-03-23T05:04:44;4.53;;;3.90;;
74777;SDS011;63298;53.164;8.610;2023-03-23T05:07:10;9.60;;;4.68;;
74777;SDS011;63298;53.164;8.610;2023-03-23T05:09:36;4.88;;;3.58;;
74777;SDS011;63298;53.164;8.610;2023-03-23T05:12:08;6.35;;;3.63;;
74777;SDS011;63298;53.164;8.610;2023-03-23T05:14:34;8.48;;;4.18;;
74777;SDS011;63298;53.164;8.610;2023-03-23T05:17:00;6.22;;;3.80;;
74777;SDS011;63298;53.164;8.610;2023-03-23T05:19:26;6.53;;;4.00;;
74777;SDS011;63298;53.164;8.610;2023-03-23T05:21:51;10.05;;;4.10;;
74777;SDS011;63298;53.164;8.610;2023-03-23T05:24:17;5.43;;;3.85;;
74777;SDS011;63298;53.164;8.610;2023-03-23T05:26:42;5.25;;;3.25;;
74777;SDS011;63298;53.164;8.610;2023-03-23T05:29:07;4.45;;;3.28;;
74777;SDS011;63298;53.164;8.610;2023-03-23T05:31:33;5.60;;;3.60;;
74777;SDS011;63298;53.164;8.610;2023-03-23T05:33:59;7.63;;;3.42;;
74777;SDS011;63298;53.164;8.610;2023-03-23T05:36:24;5.45;;;3.20;;
74777;SDS011;63298;53.164;8.610;2023-03-23T05:38:52;7.03;;;3.28;;
74777;SDS011;63298;53.164;8.610;2023-03-23T05:41:21;5.38;;;3.15;;
74777;SDS011;63298;53.164;8.610;2023-03-23T05:43:46;3.67;;;3.35;;
74777;SDS011;63298;53.164;8.610;2023-03-23T05:46:12;6.47;;;3.30;;
74777;SDS011;63298;53.164;8.610;2023-03-23T05:48:37;4.90;;;3.78;;
74777;SDS011;63298;53.164;8.610;2023-03-23T05:51:03;5.32;;;3.13;;
74777;SDS011;63298;53.164;8.610;2023-03-23T05:53:33;5.90;;;3.33;;
74777;SDS011;63298;53.164;8.610;2023-03-23T05:55:59;4.35;;;3.25;;
74777;SDS011;63298;53.164;8.610;2023-03-23T05:58:25;8.27;;;3.55;;
74777;SDS011;63298;53.164;8.610;2023-03-23T06:00:50;7.65;;;3.45;;
74777;SDS011;63298;53.164;8.610;2023-03-23T06:03:15;5.38;;;4.03;;
74777;SDS011;63298;53.164;8.610;2023-03-23T06:05:44;5.35;;;3.45;;
74777;SDS011;63298;53.164;8.610;2023-03-23T06:08:11;5.32;;;3.33;;
74777;SDS011;63298;53.164;8.610;2023-03-23T06:10:36;6.55;;;3.80;;
74777;SDS011;63298;53.164;8.610;2023-03-23T06:13:02;5.55;;;3.90;;
74777;SDS011;63298;53.164;8.610;2023-03-23T06:15:28;3.55;;;3.25;;
74777;SDS011;63298;53.164;8.610;2023-03-23T06:17:54;4.72;;;3.70;;
74777;SDS011;63298;53.164;8.610;2023-03-23T06:20:19;4.88;;;3.40;;
74777;SDS011;63298;53.164;8.610;2023-03-23T06:22:44;4.43;;;3.30;;
74777;SDS011;63298;53.164;8.610;2023-03-23T06:25:10;5.72;;;3.47;;
74777;SDS011;63298;53.164;8.610;2023-03-23T06:27:35;4.20;;;3.55;;
74777;SDS011;63298;53.164;8.610;2023-03-23T06:30:01;4.75;;;3.47;;
74777;SDS011;63298;53.164;8.610;2023-03-23T06:32:28;4.40;;;3.35;;
74777;SDS011;63298;53.164;8.610;2023-03-23T06:34:55;11.02;;;3.47;;
74777;SDS011;63298;53.164;8.610;2023-03-23T06:37:21;4.20;;;3.20;;
74777;SDS011;63298;53.164;8.610;2023-03-23T06:39:46;4.75;;;3.40;;
74777;SDS011;63298;53.164;8.610;2023-03-23T06:42:19;4.80;;;2.97;;
74777;SDS011;63298;53.164;8.610;2023-03-23T06:44:44;6.03;;;3.53;;
74777;SDS011;63298;53.164;8.610;2023-03-23T06:47:10;5.80;;;2.72;;
74777;SDS011;63298;53.164;8.610;2023-03-23T06:49:35;3.90;;;2.83;;
74777;SDS011;63298;53.164;8.610;2023-03-23T06:52:00;4.43;;;3.15;;
74777;SDS011;63298;53.164;8.610;2023-03-23T06:54:26;5.97;;;3.08;;
74777;SDS011;63298;53.164;8.610;2023-03-23T06:56:51;3.40;;;2.55;;
74777;SDS011;63298;53.164;8.610;2023-03-23T06:59:17;5.88;;;3.67;;
74777;SDS011;63298;53.164;8.610;2023-03-23T07:01:42;5.05;;;2.92;;
74777;SDS011;63298;53.164;8.610;2023-03-23T07:04:07;3.88;;;2.95;;
74777;SDS011;63298;53.164;8.610;2023-03-23T07:06:33;5.55;;;2.80;;
74777;SDS011;63298;53.164;8.610;2023-03-23T07:08:58;5.50;;;2.40;;
74777;SDS011;63298;53.164;8.610;2023-03-23T07:11:23;3.28;;;2.83;;
74777;SDS011;63298;53.164;8.610;2023-03-23T07:13:49;5.05;;;2.30;;
74777;SDS011;63298;53.164;8.610;2023-03-23T07:16:15;6.60;;;1.75;;
74777;SDS011;63298;53.164;8.610;2023-03-23T07:18:41;4.78;;;1.60;;
74777;SDS011;63298;53.164;8.610;2023-03-23T07:21:06;5.88;;;1.95;;
74777;SDS011;63298;53.164;8.610;2023-03-23T07:23:32;2.92;;;1.73;;
74777;SDS011;63298;53.164;8.610;2023-03-23T07:25:57;9.27;;;1.98;;
74777;SDS011;63298;53.164;8.610;2023-03-23T07:28:22;4.18;;;1.48;;
74777;SDS011;63298;53.164;8.610;2023-03-23T07:30:48;5.03;;;2.15;;
74777;SDS011;63298;53.164;8.610;2023-03-23T07:33:13;5.50;;;1.20;;
74777;SDS011;63298;53.164;8.610;2023-03-23T07:35:39;2.60;;;0.90;;
74777;SDS011;63298;53.164;8.610;2023-03-23T07:38:05;5.85;;;1.10;;
74777;SDS011;63298;53.164;8.610;2023-03-23T07:40:31;4.05;;;1.15;;
74777;SDS011;63298;53.164;8.610;2023-03-23T07:42:56;2.20;;;1.10;;
74777;SDS011;63298;53.164;8.610;2023-03-23T07:45:22;4.50;;;1.10;;
74777;SDS011;63298;53.164;8.610;2023-03-23T07:47:48;3.38;;;0.70;;
74777;SDS011;63298;53.164;8.610;2023-03-23T07:50:14;5.68;;;1.15;;
74777;SDS011;63298;53.164;8.610;2023-03-23T07:52:40;6.35;;;1.45;;
74777;SDS011;63298;53.164;8.610;2023-03-23T07:55:06;4.63;;;1.40;;
74777;SDS011;63298;53.164;8.610;2023-03-23T07:57:33;5.65;;;1.55;;
74777;SDS011;63298;53.164;8.610;2023-03-23T07:59:58;5.75;;;0.77;;
74777;SDS011;63298;53.164;8.610;2023-03-23T08:02:24;2.58;;;0.70;;
74777;SDS011;63298;53.164;8.610;2023-03-23T08:04:50;5.05;;;1.48;;
74777;SDS011;63298;53.164;8.610;2023-03-23T08:07:16;5.40;;;1.10;;
74777;SDS011;63298;53.164;8.610;2023-03-23T08:09:44;4.78;;;1.15;;
74777;SDS011;63298;53.164;8.610;2023-03-23T08:12:11;4.00;;;1.45;;
74777;SDS011;63298;53.164;8.610;2023-03-23T08:14:36;2.95;;;1.13;;
74777;SDS011;63298;53.164;8.610;2023-03-23T08:17:01;4.82;;;1.25;;
74777;SDS011;63298;53.164;8.610;2023-03-23T08:19:27;2.42;;;1.08;;
74777;SDS011;63298;53.164;8.610;2023-03-23T08:21:52;4.10;;;1.30;;
74777;SDS011;63298;53.164;8.610;2023-03-23T08:24:18;4.15;;;1.02;;
74777;SDS011;63298;53.164;8.610;2023-03-23T08:26:46;2.65;;;1.15;;
74777;SDS011;63298;53.164;8.610;2023-03-23T08:29:12;2.75;;;1.00;;
74777;SDS011;63298;53.164;8.610;2023-03-23T08:31:38;1.70;;;1.23;;
74777;SDS011;63298;53.164;8.610;2023-03-23T08:34:04;4.97;;;1.58;;
74777;SDS011;63298;53.164;8.610;2023-03-23T08:36:30;8.38;;;1.50;;
74777;SDS011;63298;53.164;8.610;2023-03-23T08:38:57;3.08;;;1.20;;
74777;SDS011;63298;53.164;8.610;2023-03-23T08:41:22;5.75;;;1.52;;
74777;SDS011;63298;53.164;8.610;2023-03-23T08:43:50;4.47;;;1.50;;
74777;SDS011;63298;53.164;8.610;2023-03-23T08:46:16;6.18;;;1.33;;
74777;SDS011;63298;53.164;8.610;2023-03-23T08:48:41;7.55;;;1.50;;
74777;SDS011;63298;53.164;8.610;2023-03-23T08:51:07;4.88;;;1.33;;
74777;SDS011;63298;53.164;8.610;2023-03-23T08:53:32;6.15;;;1.90;;
74777;SDS011;63298;53.164;8.610;2023-03-23T08:56:08;7.38;;;1.98;;
74777;SDS011;63298;53.164;8.610;2023-03-23T08:58:38;8.40;;;1.80;;
74777;SDS011;63298;53.164;8.610;2023-03-23T09:01:04;19.25;;;2.05;;
74777;SDS011;63298;53.164;8.610;2023-03-23T09:03:32;8.07;;;1.45;;
74777;SDS011;63298;53.164;8.610;2023-03-23T09:05:58;9.18;;;1.65;;
74777;SDS011;63298;53.164;8.610;2023-03-23T09:08:25;9.52;;;2.05;;
74777;SDS011;63298;53.164;8.610;2023-03-23T09:10:51;6.47;;;1.65;;
74777;SDS011;63298;53.164;8.610;2023-03-23T09:13:16;9.93;;;1.67;;
74777;SDS011;63298;53.164;8.610;2023-03-23T09:15:42;7.10;;;1.38;;
74777;SDS011;63298;53.164;8.610;2023-03-23T09:18:07;11.80;;;1.80;;
74777;SDS011;63298;53.164;8.610;2023-03-23T09:20:32;6.57;;;1.70;;
74777;SDS011;63298;53.164;8.610;2023-03-23T09:22:58;10.98;;;1.50;;
74777;SDS011;63298;53.164;8.610;2023-03-23T09:25:24;9.13;;;1.63;;
74777;SDS011;63298;53.164;8.610;2023-03-23T09:27:53;8.68;;;1.80;;
74777;SDS011;63298;53.164;8.610;2023-03-23T09:30:20;7.22;;;1.50;;
74777;SDS011;63298;53.164;8.610;2023-03-23T09:32:46;7.45;;;2.00;;
74777;SDS011;63298;53.164;8.610;2023-03-23T09:35:11;8.57;;;1.98;;
74777;SDS011;63298;53.164;8.610;2023-03-23T09:37:37;5.15;;;1.80;;
74777;SDS011;63298;53.164;8.610;2023-03-23T09:40:04;7.88;;;2.20;;
74777;SDS011;63298;53.164;8.610;2023-03-23T09:42:36;4.97;;;1.73;;
74777;SDS011;63298;53.164;8.610;2023-03-23T09:48:32;9.98;;;1.65;;
74777;SDS011;63298;53.164;8.610;2023-03-23T09:51:54;5.32;;;1.70;;
74777;SDS011;63298;53.164;8.610;2023-03-23T09:54:31;5.72;;;1.48;;
74777;SDS011;63298;53.164;8.610;2023-03-23T09:57:01;5.22;;;1.52;;
74777;SDS011;63298;53.164;8.610;2023-03-23T09:59:34;4.93;;;1.48;;
74777;SDS011;63298;53.164;8.610;2023-03-23T10:02:26;6.88;;;1.70;;
74777;SDS011;63298;53.164;8.610;2023-03-23T10:05:00;7.88;;;1.85;;
74777;SDS011;63298;53.164;8.610;2023-03-23T10:07:47;9.10;;;1.98;;
74777;SDS011;63298;53.164;8.610;2023-03-23T10:10:13;4.78;;;1.55;;
74777;SDS011;63298;53.164;8.610;2023-03-23T10:12:42;5.68;;;1.75;;
74777;SDS011;63298;53.164;8.610;2023-03-23T10:15:16;5.53;;;1.58;;
74777;SDS011;63298;53.164;8.610;2023-03-23T10:20:42;9.68;;;1.40;;
74777;SDS011;63298;53.164;8.610;2023-03-23T10:23:38;6.60;;;1.40;;
74777;SDS011;63298;53.164;8.610;2023-03-23T10:26:25;6.68;;;1.92;;
74777;SDS011;63298;53.164;8.610;2023-03-23T10:28:59;12.93;;;2.38;;
74777;SDS011;63298;53.164;8.610;2023-03-23T10:31:35;12.70;;;1.90;;
74777;SDS011;63298;53.164;8.610;2023-03-23T10:34:07;7.00;;;1.48;;
74777;SDS011;63298;53.164;8.610;2023-03-23T10:36:38;10.13;;;2.00;;
74777;SDS011;63298;53.164;8.610;2023-03-23T10:39:19;9.10;;;2.20;;
74777;SDS011;63298;53.164;8.610;2023-03-23T10:41:47;11.98;;;2.00;;
74777;SDS011;63298;53.164;8.610;2023-03-23T10:49:04;6.10;;;1.55;;
74777;SDS011;63298;53.164;8.610;2023-03-23T10:51:36;12.02;;;2.75;;
74777;SDS011;63298;53.164;8.610;2023-03-23T10:54:04;13.80;;;2.63;;
74777;SDS011;63298;53.164;8.610;2023-03-23T10:56:40;11.63;;;2.55;;
74777;SDS011;63298;53.164;8.610;2023-03-23T10:59:11;7.00;;;2.03;;
74777;SDS011;63298;53.164;8.610;2023-03-23T11:01:58;12.40;;;2.17;;
74777;SDS011;63298;53.164;8.610;2023-03-23T11:04:27;10.25;;;2.40;;
74777;SDS011;63298;53.164;8.610;2023-03-23T11:06:53;8.13;;;1.92;;
74777;SDS011;63298;53.164;8.610;2023-03-23T11:09:33;10.75;;;2.13;;
74777;SDS011;63298;53.164;8.610;2023-03-23T11:12:03;9.13;;;1.90;;
74777;SDS011;63298;53.164;8.610;2023-03-23T11:14:30;11.70;;;2.10;;
74777;SDS011;63298;53.164;8.610;2023-03-23T11:17:01;12.57;;;1.83;;
74777;SDS011;63298;53.164;8.610;2023-03-23T11:19:32;6.72;;;1.77;;
74777;SDS011;63298;53.164;8.610;2023-03-23T11:22:13;6.45;;;2.00;;
74777;SDS011;63298;53.164;8.610;2023-03-23T11:24:45;14.88;;;2.22;;
74777;SDS011;63298;53.164;8.610;2023-03-23T11:27:13;7.47;;;2.15;;
74777;SDS011;63298;53.164;8.610;2023-03-23T11:29:48;9.75;;;2.15;;
74777;SDS011;63298;53.164;8.610;2023-03-23T11:32:14;13.43;;;2.28;;
74777;SDS011;63298;53.164;8.610;2023-03-23T11:34:48;7.18;;;2.03;;
74777;SDS011;63298;53.164;8.610;2023-03-23T11:39:46;10.75;;;2.00;;
74777;SDS011;63298;53.164;8.610;2023-03-23T11:42:24;4.45;;;1.92;;
74777;SDS011;63298;53.164;8.610;2023-03-23T11:44:51;5.88;;;1.92;;
74777;SDS011;63298;53.164;8.610;2023-03-23T11:47:22;4.70;;;1.85;;
74777;SDS011;63298;53.164;8.610;2023-03-23T11:50:08;5.05;;;1.50;;
74777;SDS011;63298;53.164;8.610;2023-03-23T11:52:44;4.55;;;1.63;;
74777;SDS011;63298;53.164;8.610;2023-03-23T11:55:15;4.88;;;1.20;;
74777;SDS011;63298;53.164;8.610;2023-03-23T11:58:07;3.42;;;1.35;;
74777;SDS011;63298;53.164;8.610;2023-03-23T12:00:36;5.82;;;1.38;;
74777;SDS011;63298;53.164;8.610;2023-03-23T12:05:59;6.10;;;1.33;;
74777;SDS011;63298;53.164;8.610;2023-03-23T12:11:24;7.28;;;1.50;;
74777;SDS011;63298;53.164;8.610;2023-03-23T12:30:14;7.05;;;2.10;;
74777;SDS011;63298;53.164;8.610;2023-03-23T12:43:13;1.33;;;1.17;;
74777;SDS011;63298;53.164;8.610;2023-03-23T12:45:47;3.75;;;1.48;;
74777;SDS011;63298;53.164;8.610;2023-03-23T12:48:33;6.55;;;2.38;;
74777;SDS011;63298;53.164;8.610;2023-03-23T12:51:08;4.15;;;1.38;;
74777;SDS011;63298;53.164;8.610;2023-03-23T12:53:48;2.72;;;1.52;;
74777;SDS011;63298;53.164;8.610;2023-03-23T12:59:10;4.63;;;1.00;;
74777;SDS011;63298;53.164;8.610;2023-03-23T13:01:56;4.90;;;1.58;;
74777;SDS011;63298;53.164;8.610;2023-03-23T13:04:27;3.78;;;1.83;;
74777;SDS011;63298;53.164;8.610;2023-03-23T13:06:57;4.35;;;1.58;;
74777;SDS011;63298;53.164;8.610;2023-03-23T13:12:30;5.45;;;1.40;;
74777;SDS011;63298;53.164;8.610;2023-03-23T13:15:13;5.60;;;1.20;;
74777;SDS011;63298;53.164;8.610;2023-03-23T13:23:19;2.63;;;1.40;;
74777;SDS011;63298;53.164;8.610;2023-03-23T13:25:54;4.25;;;1.30;;
74777;SDS011;63298;53.164;8.610;2023-03-23T13:28:25;6.57;;;1.30;;
74777;SDS011;63298;53.164;8.610;2023-03-23T13:30:57;4.60;;;1.50;;
74777;SDS011;63298;53.164;8.610;2023-03-23T13:33:23;5.40;;;1.40;;
74777;SDS011;63298;53.164;8.610;2023-03-23T13:35:49;3.58;;;1.50;;
74777;SDS011;63298;53.164;8.610;2023-03-23T13:40:46;8.43;;;1.80;;
74777;SDS011;63298;53.164;8.610;2023-03-23T13:43:12;4.60;;;1.13;;
74777;SDS011;63298;53.164;8.610;2023-03-23T13:45:46;3.88;;;1.20;;
74777;SDS011;63298;53.164;8.610;2023-03-23T13:50:48;0.98;;;0.90;;
74777;SDS011;63298;53.164;8.610;2023-03-23T13:53:14;3.30;;;1.23;;
74777;SDS011;63298;53.164;8.610;2023-03-23T13:55:48;2.58;;;0.82;;
74777;SDS011;63298;53.164;8.610;2023-03-23T13:58:22;5.43;;;1.10;;
74777;SDS011;63298;53.164;8.610;2023-03-23T14:01:00;3.67;;;1.20;;
74777;SDS011;63298;53.164;8.610;2023-03-23T14:03:40;2.47;;;0.80;;
74777;SDS011;63298;53.164;8.610;2023-03-23T14:06:14;2.53;;;1.05;;
74777;SDS011;63298;53.164;8.610;2023-03-23T14:08:43;4.68;;;0.80;;
74777;SDS011;63298;53.164;8.610;2023-03-23T14:11:14;2.05;;;0.75;;
74777;SDS011;63298;53.164;8.610;2023-03-23T14:14:25;2.45;;;0.70;;
74777;SDS011;63298;53.164;8.610;2023-03-23T14:16:39;2.42;;;0.93;;
74777;SDS011;63298;53.164;8.610;2023-03-23T14:19:14;1.17;;;0.60;;
74777;SDS011;63298;53.164;8.610;2023-03-23T14:21:41;2.83;;;1.10;;
74777;SDS011;63298;53.164;8.610;2023-03-23T14:24:19;2.60;;;0.90;;
74777;SDS011;63298;53.164;8.610;2023-03-23T14:29:30;3.93;;;1.17;;
74777;SDS011;63298;53.164;8.610;2023-03-23T14:31:56;3.42;;;0.70;;
74777;SDS011;63298;53.164;8.610;2023-03-23T14:34:24;6.47;;;1.23;;
74777;SDS011;63298;53.164;8.610;2023-03-23T14:36:54;2.65;;;0.98;;
74777;SDS011;63298;53.164;8.610;2023-03-23T14:39:24;5.03;;;0.93;;
74777;SDS011;63298;53.164;8.610;2023-03-23T14:41:51;5.15;;;0.88;;
74777;SDS011;63298;53.164;8.610;2023-03-23T14:44:29;3.17;;;0.90;;
74777;SDS011;63298;53.164;8.610;2023-03-23T14:46:56;3.50;;;1.00;;
74777;SDS011;63298;53.164;8.610;2023-03-23T14:49:28;4.70;;;1.25;;
74777;SDS011;63298;53.164;8.610;2023-03-23T14:51:56;2.00;;;1.00;;
74777;SDS011;63298;53.164;8.610;2023-03-23T14:54:23;4.47;;;1.00;;
74777;SDS011;63298;53.164;8.610;2023-03-23T14:56:51;5.28;;;1.15;;
74777;SDS011;63298;53.164;8.610;2023-03-23T14:59:17;5.07;;;1.33;;
74777;SDS011;63298;53.164;8.610;2023-03-23T15:01:42;3.10;;;1.10;;
74777;SDS011;63298;53.164;8.610;2023-03-23T15:04:10;3.63;;;0.90;;
74777;SDS011;63298;53.164;8.610;2023-03-23T15:06:40;5.95;;;1.10;;
74777;SDS011;63298;53.164;8.610;2023-03-23T15:09:11;4.70;;;1.08;;
74777;SDS011;63298;53.164;8.610;2023-03-23T15:11:40;3.92;;;1.00;;
74777;SDS011;63298;53.164;8.610;2023-03-23T15:14:19;4.65;;;1.10;;
74777;SDS011;63298;53.164;8.610;2023-03-23T15:16:47;7.55;;;1.10;;
74777;SDS011;63298;53.164;8.610;2023-03-23T15:19:19;6.00;;;1.20;;
74777;SDS011;63298;53.164;8.610;2023-03-23T15:22:03;5.20;;;1.23;;
74777;SDS011;63298;53.164;8.610;2023-03-23T15:24:40;5.32;;;1.10;;
74777;SDS011;63298;53.164;8.610;2023-03-23T15:30:14;5.32;;;0.95;;
74777;SDS011;63298;53.164;8.610;2023-03-23T15:32:50;4.22;;;1.20;;
74777;SDS011;63298;53.164;8.610;2023-03-23T15:35:18;4.03;;;1.00;;
74777;SDS011;63298;53.164;8.610;2023-03-23T15:37:49;5.88;;;1.08;;
74777;SDS011;63298;53.164;8.610;2023-03-23T15:40:23;10.43;;;1.77;;
74777;SDS011;63298;53.164;8.610;2023-03-23T15:42:50;8.32;;;1.40;;
74777;SDS011;63298;53.164;8.610;2023-03-23T15:48:26;4.20;;;1.58;;
74777;SDS011;63298;53.164;8.610;2023-03-23T15:50:52;4.20;;;1.15;;
74777;SDS011;63298;53.164;8.610;2023-03-23T15:53:30;4.78;;;1.55;;
74777;SDS011;63298;53.164;8.610;2023-03-23T15:55:58;6.25;;;1.42;;
74777;SDS011;63298;53.164;8.610;2023-03-23T15:58:25;5.97;;;1.13;;
74777;SDS011;63298;53.164;8.610;2023-03-23T16:00:50;4.60;;;1.17;;
74777;SDS011;63298;53.164;8.610;2023-03-23T16:03:23;3.83;;;1.00;;
74777;SDS011;63298;53.164;8.610;2023-03-23T16:05:50;2.55;;;0.98;;
74777;SDS011;63298;53.164;8.610;2023-03-23T16:08:16;2.78;;;1.05;;
74777;SDS011;63298;53.164;8.610;2023-03-23T16:10:41;5.78;;;1.00;;
74777;SDS011;63298;53.164;8.610;2023-03-23T16:13:06;5.30;;;1.23;;
74777;SDS011;63298;53.164;8.610;2023-03-23T16:15:32;6.07;;;1.40;;
74777;SDS011;63298;53.164;8.610;2023-03-23T16:17:57;2.33;;;0.95;;
74777;SDS011;63298;53.164;8.610;2023-03-23T16:20:22;5.28;;;1.17;;
74777;SDS011;63298;53.164;8.610;2023-03-23T16:22:51;5.90;;;1.25;;
74777;SDS011;63298;53.164;8.610;2023-03-23T16:25:17;2.25;;;1.00;;